createdAt,value
2022-10-17T00:00:04.116Z,8.07
2022-10-17T00:02:31.961Z,8.10
2022-10-17T00:04:59.759Z,7.93
2022-10-17T00:07:33.118Z,7.93
2022-10-17T00:10:01.167Z,7.99
2022-10-17T00:12:32.499Z,7.85
2022-10-17T00:15:02.167Z,8.01
2022-10-17T00:17:30.444Z,7.78
2022-10-17T00:20:01.620Z,7.85
2022-10-17T00:22:31.320Z,7.93
2022-10-17T00:24:59.155Z,8.12
2022-10-17T00:27:30.838Z,8.16
2022-10-17T00:30:01.404Z,8.21
2022-10-17T00:32:29.210Z,8.14
2022-10-17T00:34:58.516Z,8.20
2022-10-17T00:37:28.410Z,8.15
2022-10-17T00:39:56.198Z,8.44
2022-10-17T00:42:38.861Z,8.41
2022-10-17T00:45:14.781Z,8.51
2022-10-17T00:47:51.217Z,8.46
2022-10-17T00:50:20.520Z,8.70
2022-10-17T00:52:51.426Z,8.66
2022-10-17T00:55:24.982Z,8.79
2022-10-17T00:57:57.518Z,8.83
2022-10-17T01:00:27.890Z,8.61
2022-10-17T01:02:57.844Z,8.85
2022-10-17T01:05:25.709Z,8.62
2022-10-17T01:07:57.167Z,8.59
2022-10-17T01:10:34.174Z,8.61
2022-10-17T01:13:12.671Z,8.33
2022-10-17T01:15:51.698Z,8.64
2022-10-17T01:18:35.790Z,8.82
2022-10-17T01:21:21.408Z,8.77
2022-10-17T01:24:33.759Z,8.83
2022-10-17T01:27:25.006Z,8.94
2022-10-17T01:30:32.496Z,8.98
2022-10-17T01:33:08.281Z,8.80
2022-10-17T01:35:43.748Z,8.83
2022-10-17T01:38:15.862Z,9.02
2022-10-17T01:40:53.903Z,8.95
2022-10-17T01:43:27.038Z,9.04
2022-10-17T01:46:05.955Z,9.08
2022-10-17T01:48:37.734Z,9.05
2022-10-17T01:51:14.343Z,8.94
2022-10-17T01:53:47.594Z,9.15
2022-10-17T01:56:21.343Z,9.27
2022-10-17T01:58:54.136Z,8.71
2022-10-17T02:01:29.678Z,9.01
2022-10-17T02:04:17.079Z,9.17
2022-10-17T02:06:49.044Z,9.24
2022-10-17T02:09:22.697Z,9.28
2022-10-17T02:12:18.845Z,9.25
2022-10-17T02:15:03.439Z,9.37
2022-10-17T02:17:45.020Z,9.15
2022-10-17T02:20:21.599Z,9.36
2022-10-17T02:22:59.291Z,9.39
2022-10-17T02:25:37.840Z,9.28
2022-10-17T02:28:19.396Z,9.34
2022-10-17T02:30:53.013Z,9.26
2022-10-17T02:33:28.745Z,8.97
2022-10-17T02:36:03.148Z,9.35
2022-10-17T02:38:38.008Z,9.38
2022-10-17T02:41:07.634Z,9.49
2022-10-17T02:43:42.230Z,9.56
2022-10-17T02:46:10.422Z,9.38
2022-10-17T02:48:47.130Z,9.04
2022-10-17T02:51:23.491Z,9.18
2022-10-17T02:54:01.377Z,9.35
2022-10-17T02:56:32.549Z,9.26
2022-10-17T02:59:06.468Z,9.45
2022-10-17T03:01:36.346Z,9.25
2022-10-17T03:04:13.050Z,9.41
2022-10-17T03:06:42.875Z,9.22
2022-10-17T03:09:10.728Z,9.23
2022-10-17T03:11:41.040Z,9.15
2022-10-17T03:14:08.923Z,9.18
2022-10-17T03:16:39.015Z,9.10
2022-10-17T03:19:10.036Z,9.09
2022-10-17T03:21:38.289Z,9.17
2022-10-17T03:24:09.131Z,9.18
2022-10-17T03:26:39.223Z,8.84
2022-10-17T03:29:07.048Z,9.16
2022-10-17T03:31:37.455Z,9.08
2022-10-17T03:34:07.156Z,8.99
2022-10-17T03:36:34.930Z,8.94
2022-10-17T03:39:05.109Z,9.04
2022-10-17T03:41:36.203Z,8.96
2022-10-17T03:44:04.501Z,9.03
2022-10-17T03:46:34.741Z,8.90
2022-10-17T03:49:04.750Z,8.92
2022-10-17T03:51:34.522Z,8.88
2022-10-17T03:54:05.375Z,8.78
2022-10-17T03:56:36.504Z,8.78
2022-10-17T03:59:04.328Z,8.47
2022-10-17T04:01:34.504Z,8.80
2022-10-17T04:04:02.661Z,8.72
2022-10-17T04:06:30.418Z,8.95
2022-10-17T04:09:00.572Z,8.61
2022-10-17T04:11:32.747Z,8.82
2022-10-17T04:14:01.916Z,8.64
2022-10-17T04:16:30.232Z,8.69
2022-10-17T04:19:03.315Z,8.74
2022-10-17T04:21:31.100Z,8.82
2022-10-17T04:24:00.339Z,8.38
2022-10-17T04:26:35.043Z,8.74
2022-10-17T04:29:05.170Z,8.36
2022-10-17T04:31:32.974Z,8.36
2022-10-17T04:34:03.204Z,8.19
2022-10-17T04:36:30.981Z,8.86
2022-10-17T04:38:58.780Z,8.64
2022-10-17T04:41:30.601Z,8.72
2022-10-17T04:43:58.475Z,8.70
2022-10-17T04:46:27.610Z,8.77
2022-10-17T04:48:59.470Z,8.64
2022-10-17T04:51:27.271Z,8.55
2022-10-17T04:53:55.176Z,8.32
2022-10-17T04:56:26.387Z,8.57
2022-10-17T04:58:54.161Z,8.70
2022-10-17T05:01:23.698Z,8.72
2022-10-17T05:03:57.900Z,8.66
2022-10-17T05:06:28.160Z,8.40
2022-10-17T05:09:01.037Z,8.68
2022-10-17T05:11:30.269Z,8.61
2022-10-17T05:14:01.564Z,8.34
2022-10-17T05:16:32.338Z,8.80
2022-10-17T05:19:04.074Z,8.70
2022-10-17T05:24:02.049Z,8.52
2022-10-17T05:26:32.183Z,8.62
2022-10-17T05:29:02.793Z,8.49
2022-10-17T05:31:33.390Z,8.57
2022-10-17T05:34:04.710Z,8.58
2022-10-17T05:36:32.553Z,8.47
2022-10-17T05:39:02.386Z,8.44
2022-10-17T05:41:32.485Z,8.60
2022-10-17T05:44:03.160Z,8.46
2022-10-17T05:46:35.945Z,8.40
2022-10-17T05:49:14.766Z,8.41
2022-10-17T05:51:57.062Z,8.38
2022-10-17T05:54:25.004Z,8.20
2022-10-17T05:56:53.446Z,8.55
2022-10-17T05:59:25.378Z,8.60
2022-10-17T06:01:53.441Z,8.57
2022-10-17T06:04:22.739Z,8.65
2022-10-17T06:06:55.085Z,8.43
2022-10-17T06:09:24.333Z,8.59
2022-10-17T06:11:52.434Z,8.48
2022-10-17T06:14:24.417Z,8.46
2022-10-17T06:16:52.157Z,8.65
2022-10-17T06:19:20.379Z,8.60
2022-10-17T06:21:53.473Z,8.74
2022-10-17T06:24:21.222Z,8.69
2022-10-17T06:26:49.925Z,8.59
2022-10-17T06:29:24.367Z,8.32
2022-10-17T06:31:52.175Z,8.85
2022-10-17T06:34:20.115Z,8.89
2022-10-17T06:36:53.075Z,8.91
2022-10-17T06:39:20.850Z,8.85
2022-10-17T06:41:48.622Z,8.89
2022-10-17T06:44:18.412Z,9.01
2022-10-17T06:46:46.188Z,9.05
2022-10-17T06:49:13.979Z,8.94
2022-10-17T06:51:44.112Z,8.80
2022-10-17T06:54:13.258Z,9.16
2022-10-17T06:56:41.050Z,9.22
2022-10-17T06:59:13.578Z,9.08
2022-10-17T07:01:43.272Z,9.22
2022-10-17T07:04:18.051Z,9.31
2022-10-17T07:06:45.911Z,9.01
2022-10-17T07:09:15.079Z,9.38
2022-10-17T07:11:46.924Z,9.44
2022-10-17T07:14:14.663Z,9.41
2022-10-17T07:16:45.441Z,9.50
2022-10-17T07:19:13.351Z,9.43
2022-10-17T07:21:41.167Z,9.35
2022-10-17T07:24:09.102Z,9.51
2022-10-17T07:26:40.148Z,9.47
2022-10-17T07:29:08.169Z,9.59
2022-10-17T07:31:38.253Z,9.67
2022-10-17T07:34:06.065Z,9.71
2022-10-17T07:36:34.156Z,9.43
2022-10-17T07:39:02.157Z,9.72
2022-10-17T07:41:32.581Z,9.81
2022-10-17T07:44:01.775Z,9.84
2022-10-17T07:46:29.789Z,9.91
2022-10-17T07:48:59.522Z,9.94
2022-10-17T07:51:27.975Z,9.71
2022-10-17T07:53:58.166Z,9.62
2022-10-17T07:56:26.193Z,9.47
2022-10-17T07:58:54.737Z,9.86
2022-10-17T08:01:30.025Z,9.88
2022-10-17T08:03:57.849Z,10.04
2022-10-17T08:06:27.863Z,9.72
2022-10-17T08:08:59.927Z,9.84
2022-10-17T08:11:27.841Z,10.21
2022-10-17T08:13:57.960Z,10.02
2022-10-17T08:16:29.109Z,10.27
2022-10-17T08:18:57.123Z,9.94
2022-10-17T08:21:25.200Z,10.38
2022-10-17T08:23:55.050Z,10.29
2022-10-17T08:26:23.207Z,10.49
2022-10-17T08:28:53.620Z,10.49
2022-10-17T08:31:23.768Z,10.37
2022-10-17T08:33:52.988Z,10.49
2022-10-17T08:36:21.700Z,10.56
2022-10-17T08:38:53.018Z,10.58
2022-10-17T08:41:42.069Z,10.33
2022-10-17T08:44:22.548Z,10.26
2022-10-17T08:46:54.083Z,10.49
2022-10-17T08:49:29.715Z,10.44
2022-10-17T08:52:07.291Z,10.59
2022-10-17T08:54:42.981Z,10.78
2022-10-17T08:57:14.397Z,10.76
2022-10-17T08:59:43.382Z,10.74
2022-10-17T09:02:35.750Z,10.75
2022-10-17T09:05:26.689Z,10.53
2022-10-17T09:08:08.011Z,10.62
2022-10-17T09:10:53.614Z,10.70
2022-10-17T09:13:33.305Z,10.66
2022-10-17T09:16:16.067Z,10.56
2022-10-17T09:18:59.508Z,10.30
2022-10-17T09:21:37.542Z,10.60
2022-10-17T09:24:17.037Z,10.62
2022-10-17T09:26:46.960Z,10.67
2022-10-17T09:29:24.480Z,10.36
2022-10-17T09:32:01.779Z,10.48
2022-10-17T09:34:34.343Z,10.50
2022-10-17T09:37:04.139Z,10.60
2022-10-17T09:39:34.458Z,10.70
2022-10-17T09:42:04.058Z,10.42
2022-10-17T09:44:34.012Z,10.49
2022-10-17T09:47:21.713Z,11.02
2022-10-17T09:49:51.093Z,11.28
2022-10-17T09:52:30.667Z,11.08
2022-10-17T09:55:02.856Z,10.93
2022-10-17T09:57:55.394Z,10.98
2022-10-17T10:00:25.565Z,11.08
2022-10-17T10:03:11.886Z,11.28
2022-10-17T10:05:39.962Z,11.13
2022-10-17T10:08:16.053Z,11.14
2022-10-17T10:10:44.470Z,10.82
2022-10-17T10:13:22.404Z,11.05
2022-10-17T10:15:51.821Z,11.09
2022-10-17T10:18:32.923Z,11.01
2022-10-17T10:21:09.759Z,11.39
2022-10-17T10:23:43.205Z,11.34
2022-10-17T10:26:23.771Z,11.57
2022-10-17T10:29:00.176Z,11.82
2022-10-17T10:31:34.859Z,11.79
2022-10-17T10:34:18.749Z,11.70
2022-10-17T10:36:51.234Z,12.01
2022-10-17T10:39:31.871Z,11.76
2022-10-17T10:42:00.434Z,11.61
2022-10-17T10:44:35.087Z,11.93
2022-10-17T10:47:16.731Z,11.74
2022-10-17T10:49:45.573Z,12.16
2022-10-17T10:52:23.388Z,12.26
2022-10-17T10:55:02.281Z,11.57
2022-10-17T10:57:34.702Z,11.86
2022-10-17T11:00:12.475Z,12.11
2022-10-17T11:02:48.663Z,11.76
2022-10-17T11:05:22.150Z,11.56
2022-10-17T11:07:56.154Z,11.58
2022-10-17T11:10:32.690Z,11.62
2022-10-17T11:13:07.195Z,11.61
2022-10-17T11:15:41.864Z,11.86
2022-10-17T11:18:14.292Z,11.95
2022-10-17T11:20:51.815Z,11.92
2022-10-17T11:23:25.251Z,12.00
2022-10-17T11:25:55.836Z,12.02
2022-10-17T11:28:26.066Z,11.75
2022-10-17T11:31:05.844Z,11.65
2022-10-17T11:33:45.252Z,11.58
2022-10-17T11:36:17.827Z,11.97
2022-10-17T11:38:50.863Z,11.90
2022-10-17T11:41:31.008Z,11.66
2022-10-17T11:44:04.537Z,11.93
2022-10-17T11:46:37.672Z,11.90
2022-10-17T11:49:19.048Z,12.10
2022-10-17T11:52:00.903Z,12.12
2022-10-17T11:54:35.108Z,12.04
2022-10-17T11:57:22.803Z,12.03
2022-10-17T12:00:01.291Z,12.18
2022-10-17T12:02:39.203Z,11.94
2022-10-17T12:05:21.139Z,12.22
2022-10-17T12:07:56.425Z,12.05
2022-10-17T12:10:38.487Z,12.13
2022-10-17T12:13:42.981Z,12.23
2022-10-17T12:16:46.127Z,12.45
2022-10-17T12:19:28.748Z,12.28
2022-10-17T12:21:59.377Z,12.07
2022-10-17T12:24:36.007Z,12.37
2022-10-17T12:27:23.386Z,12.35
2022-10-17T12:29:51.821Z,12.28
2022-10-17T12:32:21.089Z,12.20
2022-10-17T12:34:56.182Z,12.33
2022-10-17T12:37:58.696Z,12.49
2022-10-17T12:40:52.302Z,12.41
2022-10-17T12:43:58.149Z,12.33
2022-10-17T12:46:47.467Z,12.19
2022-10-17T12:49:40.594Z,12.30
2022-10-17T12:52:24.012Z,12.42
2022-10-17T12:55:07.427Z,12.34
2022-10-17T12:57:47.488Z,12.63
2022-10-17T13:00:22.865Z,12.57
2022-10-17T13:02:55.393Z,12.31
2022-10-17T13:05:29.754Z,12.18
2022-10-17T13:08:02.251Z,12.19
2022-10-17T13:10:33.224Z,12.24
2022-10-17T13:13:09.494Z,11.95
2022-10-17T13:15:38.494Z,12.08
2022-10-17T13:18:21.132Z,12.08
2022-10-17T13:20:58.913Z,11.78
2022-10-17T13:23:31.863Z,12.14
2022-10-17T13:26:09.048Z,12.07
2022-10-17T13:28:39.537Z,11.67
2022-10-17T13:31:08.029Z,11.82
2022-10-17T13:33:41.123Z,11.89
2022-10-17T13:36:18.881Z,11.91
2022-10-17T13:38:50.991Z,11.89
2022-10-17T13:41:35.335Z,11.86
2022-10-17T13:44:08.774Z,11.77
2022-10-17T13:46:38.853Z,11.75
2022-10-17T13:49:23.175Z,11.52
2022-10-17T13:51:56.162Z,11.63
2022-10-17T13:54:38.775Z,11.69
2022-10-17T13:57:08.065Z,11.66
2022-10-17T13:59:42.465Z,11.65
2022-10-17T14:02:16.464Z,11.51
2022-10-17T14:05:18.661Z,11.60
2022-10-17T14:08:12.664Z,11.58
2022-10-17T14:10:45.351Z,11.55
2022-10-17T14:13:22.162Z,11.20
2022-10-17T14:15:51.065Z,11.24
2022-10-17T14:18:21.947Z,10.97
2022-10-17T14:23:44.498Z,10.79
2022-10-17T14:26:16.080Z,10.86
2022-10-17T14:28:46.859Z,10.98
2022-10-17T14:31:25.096Z,11.00
2022-10-17T14:33:54.704Z,10.92
2022-10-17T14:36:32.427Z,10.91
2022-10-17T14:39:02.491Z,10.58
2022-10-17T14:41:48.600Z,10.75
2022-10-17T14:44:29.559Z,10.84
2022-10-17T14:47:03.432Z,10.64
2022-10-17T14:49:39.990Z,10.74
2022-10-17T14:52:15.107Z,10.68
2022-10-17T14:54:49.866Z,10.61
2022-10-17T14:57:19.880Z,10.45
2022-10-17T14:59:55.714Z,10.25
2022-10-17T15:02:24.281Z,10.38
2022-10-17T15:04:52.247Z,10.15
2022-10-17T15:07:21.102Z,10.23
2022-10-17T15:09:52.640Z,10.37
2022-10-17T15:12:24.939Z,10.11
2022-10-17T15:14:53.432Z,10.30
2022-10-17T15:17:27.581Z,10.24
2022-10-17T15:19:55.822Z,9.71
2022-10-17T15:22:24.210Z,10.05
2022-10-17T15:24:53.508Z,9.84
2022-10-17T15:27:22.873Z,9.75
2022-10-17T15:29:51.663Z,9.81
2022-10-17T15:32:20.030Z,9.85
2022-10-17T15:34:47.831Z,9.87
2022-10-17T15:37:22.675Z,9.97
2022-10-17T15:39:53.519Z,9.92
2022-10-17T15:42:27.459Z,9.66
2022-10-17T15:44:55.909Z,9.84
2022-10-17T15:47:26.461Z,9.78
2022-10-17T15:49:54.957Z,9.70
2022-10-17T15:52:22.900Z,9.79
2022-10-17T15:54:50.712Z,9.84
2022-10-17T15:57:21.515Z,9.88
2022-10-17T15:59:52.174Z,10.03
2022-10-17T16:02:21.662Z,9.77
2022-10-17T16:04:55.358Z,9.42
2022-10-17T16:07:23.275Z,9.37
2022-10-17T16:09:51.081Z,9.44
2022-10-17T16:12:29.910Z,9.38
2022-10-17T16:14:59.117Z,9.33
2022-10-17T16:17:29.375Z,9.15
2022-10-17T16:19:57.200Z,9.26
2022-10-17T16:22:32.422Z,9.08
2022-10-17T16:25:09.633Z,9.17
2022-10-17T16:27:38.740Z,8.86
2022-10-17T16:30:10.015Z,9.21
2022-10-17T16:32:39.658Z,9.08
2022-10-17T16:35:08.792Z,9.10
2022-10-17T16:37:36.863Z,9.10
2022-10-17T16:40:05.657Z,8.87
2022-10-17T16:42:33.505Z,9.10
2022-10-17T16:45:03.574Z,9.18
2022-10-17T16:47:34.598Z,9.21
2022-10-17T16:50:02.440Z,9.21
2022-10-17T16:52:30.585Z,9.38
2022-10-17T16:54:58.621Z,9.23
2022-10-17T16:57:26.482Z,9.27
2022-10-17T16:59:56.533Z,9.10
2022-10-17T17:02:24.444Z,9.01
2022-10-17T17:04:53.570Z,9.07
2022-10-17T17:07:22.150Z,9.37
2022-10-17T17:09:49.989Z,9.22
2022-10-17T17:12:17.741Z,9.19
2022-10-17T17:14:45.597Z,9.39
2022-10-17T17:17:19.694Z,9.30
2022-10-17T17:19:59.828Z,9.50
2022-10-17T17:22:29.860Z,9.37
2022-10-17T17:24:57.598Z,9.26
2022-10-17T17:27:28.854Z,9.33
2022-10-17T17:29:57.053Z,9.10
2022-10-17T17:32:24.861Z,9.16
2022-10-17T17:34:55.171Z,9.26
2022-10-17T17:37:24.447Z,9.24
2022-10-17T17:39:52.263Z,9.23
2022-10-17T17:42:20.399Z,9.12
2022-10-17T17:44:50.656Z,9.19
2022-10-17T17:47:18.491Z,9.26
2022-10-17T17:49:48.567Z,9.24
2022-10-17T17:52:16.527Z,9.04
2022-10-17T17:54:45.863Z,9.30
2022-10-17T17:57:13.824Z,9.41
2022-10-17T17:59:43.665Z,9.09
2022-10-17T18:02:13.761Z,9.35
2022-10-17T18:04:41.611Z,9.77
2022-10-17T18:07:11.353Z,9.31
2022-10-17T18:09:41.360Z,9.21
2022-10-17T18:12:10.537Z,9.35
2022-10-17T18:14:40.342Z,9.35
2022-10-17T18:17:08.309Z,9.35
2022-10-17T18:19:36.126Z,9.16
2022-10-17T18:22:05.866Z,9.29
2022-10-17T18:24:36.034Z,9.28
2022-10-17T18:27:04.133Z,8.93
2022-10-17T18:29:35.626Z,8.99
2022-10-17T18:32:06.099Z,8.83
2022-10-17T18:34:35.293Z,8.82
2022-10-17T18:37:27.307Z,8.74
2022-10-17T18:39:55.959Z,8.70
2022-10-17T18:42:24.088Z,8.43
2022-10-17T18:47:49.573Z,8.55
2022-10-17T18:50:20.016Z,8.56
2022-10-17T18:52:48.651Z,8.79
2022-10-17T18:55:25.946Z,8.56
2022-10-17T18:57:56.040Z,8.56
2022-10-17T19:00:23.978Z,8.29
2022-10-17T19:02:55.761Z,8.39
2022-10-17T19:05:23.976Z,8.27
2022-10-17T19:07:52.015Z,8.30
2022-10-17T19:10:22.368Z,8.03
2022-10-17T19:12:52.576Z,8.39
2022-10-17T19:15:26.371Z,8.37
2022-10-17T19:17:56.068Z,8.27
2022-10-17T19:20:30.185Z,8.32
2022-10-17T19:23:00.334Z,8.42
2022-10-17T19:25:30.580Z,8.18
2022-10-17T19:27:59.346Z,8.27
2022-10-17T19:30:28.577Z,8.34
2022-10-17T19:32:59.156Z,8.37
2022-10-17T19:35:28.336Z,8.50
2022-10-17T19:37:56.862Z,8.36
2022-10-17T19:40:24.786Z,8.65
2022-10-17T19:42:57.527Z,8.75
2022-10-17T19:45:27.770Z,8.63
2022-10-17T19:47:56.958Z,8.44
2022-10-17T19:50:27.111Z,8.10
2022-10-17T19:52:55.027Z,8.39
2022-10-17T19:55:22.813Z,8.08
2022-10-17T19:57:52.842Z,8.46
2022-10-17T20:00:22.930Z,8.53
2022-10-17T20:02:50.666Z,8.26
2022-10-17T20:05:22.548Z,8.46
2022-10-17T20:07:53.730Z,8.54
2022-10-17T20:10:21.684Z,8.61
2022-10-17T20:12:49.498Z,8.83
2022-10-17T20:15:17.655Z,8.76
2022-10-17T20:17:47.490Z,8.67
2022-10-17T20:20:15.299Z,8.68
2022-10-17T20:22:44.699Z,8.48
2022-10-17T20:25:12.564Z,8.46
2022-10-17T20:27:40.365Z,8.47
2022-10-17T20:30:08.971Z,8.44
2022-10-17T20:32:39.572Z,8.41
2022-10-17T20:35:08.830Z,8.44
2022-10-17T20:37:42.520Z,8.35
2022-10-17T20:43:03.461Z,8.28
2022-10-17T20:45:44.220Z,8.28
2022-10-17T20:48:21.493Z,8.33
2022-10-17T20:50:49.843Z,8.32
2022-10-17T20:53:36.180Z,8.08
2022-10-17T20:56:11.921Z,7.93
2022-10-17T20:58:39.688Z,8.25
2022-10-17T21:01:08.941Z,8.18
2022-10-17T21:03:39.804Z,8.13
2022-10-17T21:06:10.909Z,8.17
2022-10-17T21:08:39.100Z,8.22
2022-10-17T21:11:16.681Z,8.48
2022-10-17T21:13:45.102Z,8.10
2022-10-17T21:16:15.475Z,8.27
2022-10-17T21:18:48.240Z,8.26
2022-10-17T21:21:17.556Z,8.34
2022-10-17T21:23:51.989Z,8.04
2022-10-17T21:26:21.500Z,8.36
2022-10-17T21:28:52.316Z,8.22
2022-10-17T21:31:24.003Z,8.19
2022-10-17T21:33:53.523Z,7.98
2022-10-17T21:36:24.603Z,8.10
2022-10-17T21:38:56.180Z,8.13
2022-10-17T21:41:29.163Z,8.21
2022-10-17T21:43:58.903Z,8.19
2022-10-17T21:46:27.296Z,8.20
2022-10-17T21:48:55.690Z,7.86
2022-10-17T21:51:27.190Z,8.13
2022-10-17T21:53:58.331Z,7.83
2022-10-17T21:56:30.698Z,8.02
2022-10-17T21:58:59.516Z,7.51
2022-10-17T22:01:29.407Z,8.32
2022-10-17T22:04:00.883Z,8.08
2022-10-17T22:06:39.668Z,8.37
2022-10-17T22:09:10.464Z,8.12
2022-10-17T22:11:42.278Z,7.96
2022-10-17T22:14:16.091Z,8.04
2022-10-17T22:16:45.341Z,7.86
2022-10-17T22:19:15.859Z,7.99
2022-10-17T22:21:45.333Z,7.79
2022-10-17T22:24:15.801Z,7.33
2022-10-17T22:26:49.134Z,7.82
2022-10-17T22:29:19.362Z,7.70
2022-10-17T22:31:47.362Z,7.64
2022-10-17T22:34:16.970Z,7.64
2022-10-17T22:36:47.811Z,7.66
2022-10-17T22:39:15.777Z,7.59
2022-10-17T22:41:46.962Z,7.84
2022-10-17T22:44:14.927Z,7.74
2022-10-17T22:46:42.757Z,7.75
2022-10-17T22:49:12.526Z,8.05
2022-10-17T22:51:42.580Z,7.75
2022-10-17T22:54:10.370Z,7.67
2022-10-17T22:56:39.997Z,7.53
2022-10-17T22:59:10.979Z,7.81
2022-10-17T23:01:38.785Z,8.10
2022-10-17T23:04:06.667Z,7.81
2022-10-17T23:06:36.794Z,7.22
2022-10-17T23:09:05.000Z,7.48
2022-10-17T23:11:34.637Z,7.57
2022-10-17T23:14:04.707Z,7.70
2022-10-17T23:16:34.936Z,7.74
2022-10-17T23:19:05.052Z,7.79
2022-10-17T23:21:35.065Z,7.75
2022-10-17T23:24:02.783Z,7.64
2022-10-17T23:26:32.487Z,7.72
2022-10-17T23:29:02.683Z,7.72
2022-10-17T23:31:36.369Z,7.70
2022-10-17T23:34:04.200Z,7.79
2022-10-17T23:39:08.958Z,7.74
2022-10-17T23:41:36.735Z,7.44
2022-10-17T23:44:04.782Z,7.57
2022-10-17T23:46:38.071Z,7.42
2022-10-17T23:49:06.078Z,7.46
2022-10-17T23:51:34.390Z,7.54
2022-10-17T23:54:06.627Z,7.52
2022-10-17T23:56:34.420Z,7.76
2022-10-17T23:59:02.172Z,7.50
